sensor_id;sensor_type;location;lat;lon;timestamp;P1;durP1;ratioP1;P2;durP2;ratioP2
65459;SDS011;52058;49.822;6.754;2023-05-10T00:00:45;1.92;;;1.35;;
65459;SDS011;52058;49.822;6.754;2023-05-10T00:03:12;2.92;;;1.85;;
65459;SDS011;52058;49.822;6.754;2023-05-10T00:05:38;2.67;;;1.70;;
65459;SDS011;52058;49.822;6.754;2023-05-10T00:08:05;2.20;;;1.80;;
65459;SDS011;52058;49.822;6.754;2023-05-10T00:10:31;2.20;;;2.00;;
65459;SDS011;52058;49.822;6.754;2023-05-10T00:12:58;2.20;;;1.85;;
65459;SDS011;52058;49.822;6.754;2023-05-10T00:15:26;2.03;;;1.77;;
65459;SDS011;52058;49.822;6.754;2023-05-10T00:17:52;2.35;;;1.70;;
65459;SDS011;52058;49.822;6.754;2023-05-10T00:20:19;2.72;;;1.70;;
65459;SDS011;52058;49.822;6.754;2023-05-10T00:22:45;3.53;;;1.90;;
65459;SDS011;52058;49.822;6.754;2023-05-10T00:25:12;2.25;;;2.05;;
65459;SDS011;52058;49.822;6.754;2023-05-10T00:27:38;2.20;;;1.88;;
65459;SDS011;52058;49.822;6.754;2023-05-10T00:30:06;1.70;;;1.60;;
65459;SDS011;52058;49.822;6.754;2023-05-10T00:32:34;2.80;;;2.08;;
65459;SDS011;52058;49.822;6.754;2023-05-10T00:35:01;2.35;;;1.90;;
65459;SDS011;52058;49.822;6.754;2023-05-10T00:37:27;2.95;;;2.20;;
65459;SDS011;52058;49.822;6.754;2023-05-10T00:39:54;2.88;;;2.40;;
65459;SDS011;52058;49.822;6.754;2023-05-10T00:42:20;2.38;;;2.17;;
65459;SDS011;52058;49.822;6.754;2023-05-10T00:44:48;2.45;;;2.25;;
65459;SDS011;52058;49.822;6.754;2023-05-10T00:47:15;2.58;;;2.38;;
65459;SDS011;52058;49.822;6.754;2023-05-10T00:49:43;3.30;;;2.50;;
65459;SDS011;52058;49.822;6.754;2023-05-10T00:52:10;3.58;;;2.22;;
65459;SDS011;52058;49.822;6.754;2023-05-10T00:54:36;3.38;;;2.20;;
65459;SDS011;52058;49.822;6.754;2023-05-10T00:57:03;3.38;;;2.70;;
65459;SDS011;52058;49.822;6.754;2023-05-10T00:59:30;4.03;;;2.67;;
65459;SDS011;52058;49.822;6.754;2023-05-10T01:01:57;3.22;;;2.90;;
65459;SDS011;52058;49.822;6.754;2023-05-10T01:04:24;3.22;;;2.88;;
65459;SDS011;52058;49.822;6.754;2023-05-10T01:06:52;3.00;;;2.70;;
65459;SDS011;52058;49.822;6.754;2023-05-10T01:09:19;3.30;;;2.95;;
65459;SDS011;52058;49.822;6.754;2023-05-10T01:11:46;3.90;;;3.17;;
65459;SDS011;52058;49.822;6.754;2023-05-10T01:14:13;3.65;;;2.80;;
65459;SDS011;52058;49.822;6.754;2023-05-10T01:16:42;4.85;;;2.90;;
65459;SDS011;52058;49.822;6.754;2023-05-10T01:19:12;4.50;;;3.30;;
65459;SDS011;52058;49.822;6.754;2023-05-10T01:21:47;3.92;;;3.10;;
65459;SDS011;52058;49.822;6.754;2023-05-10T01:27:30;4.25;;;3.38;;
65459;SDS011;52058;49.822;6.754;2023-05-10T01:30:18;5.43;;;3.47;;
65459;SDS011;52058;49.822;6.754;2023-05-10T01:32:58;5.07;;;3.33;;
65459;SDS011;52058;49.822;6.754;2023-05-10T01:35:29;4.63;;;3.03;;
65459;SDS011;52058;49.822;6.754;2023-05-10T01:38:03;5.55;;;3.35;;
65459;SDS011;52058;49.822;6.754;2023-05-10T01:40:35;5.30;;;3.30;;
65459;SDS011;52058;49.822;6.754;2023-05-10T01:43:08;5.15;;;3.25;;
65459;SDS011;52058;49.822;6.754;2023-05-10T01:45:41;5.18;;;3.40;;
65459;SDS011;52058;49.822;6.754;2023-05-10T01:48:14;3.95;;;3.25;;
65459;SDS011;52058;49.822;6.754;2023-05-10T01:50:43;3.72;;;3.30;;
65459;SDS011;52058;49.822;6.754;2023-05-10T01:53:11;4.63;;;3.30;;
65459;SDS011;52058;49.822;6.754;2023-05-10T01:55:41;4.22;;;3.53;;
65459;SDS011;52058;49.822;6.754;2023-05-10T01:58:13;5.13;;;3.30;;
65459;SDS011;52058;49.822;6.754;2023-05-10T02:00:42;6.40;;;3.65;;
65459;SDS011;52058;49.822;6.754;2023-05-10T02:03:10;5.35;;;3.70;;
65459;SDS011;52058;49.822;6.754;2023-05-10T02:05:39;4.30;;;3.38;;
65459;SDS011;52058;49.822;6.754;2023-05-10T02:08:07;7.38;;;3.70;;
65459;SDS011;52058;49.822;6.754;2023-05-10T02:10:35;4.45;;;3.88;;
65459;SDS011;52058;49.822;6.754;2023-05-10T02:13:03;5.28;;;4.28;;
65459;SDS011;52058;49.822;6.754;2023-05-10T02:15:32;4.40;;;4.00;;
65459;SDS011;52058;49.822;6.754;2023-05-10T02:17:59;6.05;;;4.13;;
65459;SDS011;52058;49.822;6.754;2023-05-10T02:20:26;4.63;;;3.88;;
65459;SDS011;52058;49.822;6.754;2023-05-10T02:22:55;6.07;;;3.97;;
65459;SDS011;52058;49.822;6.754;2023-05-10T02:25:23;4.90;;;4.05;;
65459;SDS011;52058;49.822;6.754;2023-05-10T02:27:51;5.25;;;4.15;;
65459;SDS011;52058;49.822;6.754;2023-05-10T02:30:21;4.88;;;3.72;;
65459;SDS011;52058;49.822;6.754;2023-05-10T02:32:49;7.80;;;4.47;;
65459;SDS011;52058;49.822;6.754;2023-05-10T02:35:17;6.80;;;4.07;;
65459;SDS011;52058;49.822;6.754;2023-05-10T02:37:44;5.05;;;4.18;;
65459;SDS011;52058;49.822;6.754;2023-05-10T02:40:14;4.85;;;3.95;;
65459;SDS011;52058;49.822;6.754;2023-05-10T02:42:42;5.75;;;4.28;;
65459;SDS011;52058;49.822;6.754;2023-05-10T02:45:11;6.35;;;3.75;;
65459;SDS011;52058;49.822;6.754;2023-05-10T02:47:39;5.40;;;4.10;;
65459;SDS011;52058;49.822;6.754;2023-05-10T02:50:06;4.90;;;3.78;;
65459;SDS011;52058;49.822;6.754;2023-05-10T02:52:36;7.00;;;4.10;;
65459;SDS011;52058;49.822;6.754;2023-05-10T02:55:06;7.00;;;4.60;;
65459;SDS011;52058;49.822;6.754;2023-05-10T02:57:38;6.00;;;3.88;;
65459;SDS011;52058;49.822;6.754;2023-05-10T03:00:08;4.68;;;3.90;;
65459;SDS011;52058;49.822;6.754;2023-05-10T03:02:35;5.30;;;3.65;;
65459;SDS011;52058;49.822;6.754;2023-05-10T03:05:01;4.00;;;3.45;;
65459;SDS011;52058;49.822;6.754;2023-05-10T03:07:29;4.63;;;3.42;;
65459;SDS011;52058;49.822;6.754;2023-05-10T03:09:55;4.60;;;3.45;;
65459;SDS011;52058;49.822;6.754;2023-05-10T03:12:23;6.00;;;3.65;;
65459;SDS011;52058;49.822;6.754;2023-05-10T03:15:00;6.63;;;3.65;;
65459;SDS011;52058;49.822;6.754;2023-05-10T03:17:40;4.20;;;3.60;;
65459;SDS011;52058;49.822;6.754;2023-05-10T03:20:12;5.20;;;3.47;;
65459;SDS011;52058;49.822;6.754;2023-05-10T03:22:47;6.95;;;3.70;;
65459;SDS011;52058;49.822;6.754;2023-05-10T03:25:17;5.65;;;3.75;;
65459;SDS011;52058;49.822;6.754;2023-05-10T03:27:46;5.15;;;4.05;;
65459;SDS011;52058;49.822;6.754;2023-05-10T03:30:15;5.75;;;3.70;;
65459;SDS011;52058;49.822;6.754;2023-05-10T03:32:42;5.15;;;4.13;;
65459;SDS011;52058;49.822;6.754;2023-05-10T03:35:09;5.43;;;4.40;;
65459;SDS011;52058;49.822;6.754;2023-05-10T03:37:36;6.05;;;4.53;;
65459;SDS011;52058;49.822;6.754;2023-05-10T03:40:03;6.88;;;4.38;;
65459;SDS011;52058;49.822;6.754;2023-05-10T03:42:30;7.13;;;4.75;;
65459;SDS011;52058;49.822;6.754;2023-05-10T03:44:57;7.72;;;4.72;;
65459;SDS011;52058;49.822;6.754;2023-05-10T03:47:25;7.03;;;4.57;;
65459;SDS011;52058;49.822;6.754;2023-05-10T03:49:51;6.13;;;4.57;;
65459;SDS011;52058;49.822;6.754;2023-05-10T03:52:18;10.15;;;4.75;;
65459;SDS011;52058;49.822;6.754;2023-05-10T03:54:44;8.40;;;5.38;;
65459;SDS011;52058;49.822;6.754;2023-05-10T03:57:11;9.57;;;5.35;;
65459;SDS011;52058;49.822;6.754;2023-05-10T03:59:38;7.45;;;5.05;;
65459;SDS011;52058;49.822;6.754;2023-05-10T04:02:04;6.97;;;5.00;;
65459;SDS011;52058;49.822;6.754;2023-05-10T04:04:32;10.20;;;5.55;;
65459;SDS011;52058;49.822;6.754;2023-05-10T04:06:59;7.28;;;5.30;;
65459;SDS011;52058;49.822;6.754;2023-05-10T04:09:25;8.38;;;4.93;;
65459;SDS011;52058;49.822;6.754;2023-05-10T04:11:52;7.57;;;5.05;;
65459;SDS011;52058;49.822;6.754;2023-05-10T04:14:18;8.55;;;5.55;;
65459;SDS011;52058;49.822;6.754;2023-05-10T04:16:45;7.47;;;5.28;;
65459;SDS011;52058;49.822;6.754;2023-05-10T04:19:11;9.18;;;5.68;;
65459;SDS011;52058;49.822;6.754;2023-05-10T04:21:39;6.75;;;5.60;;
65459;SDS011;52058;49.822;6.754;2023-05-10T04:24:06;9.52;;;5.57;;
65459;SDS011;52058;49.822;6.754;2023-05-10T04:26:32;8.93;;;5.55;;
65459;SDS011;52058;49.822;6.754;2023-05-10T04:28:59;9.40;;;5.47;;
65459;SDS011;52058;49.822;6.754;2023-05-10T04:31:25;6.05;;;4.97;;
65459;SDS011;52058;49.822;6.754;2023-05-10T04:33:52;8.70;;;5.45;;
65459;SDS011;52058;49.822;6.754;2023-05-10T04:36:19;7.57;;;4.72;;
65459;SDS011;52058;49.822;6.754;2023-05-10T04:38:47;7.97;;;5.18;;
65459;SDS011;52058;49.822;6.754;2023-05-10T04:41:13;7.13;;;5.30;;
65459;SDS011;52058;49.822;6.754;2023-05-10T04:43:40;6.15;;;4.85;;
65459;SDS011;52058;49.822;6.754;2023-05-10T04:46:06;11.30;;;5.18;;
65459;SDS011;52058;49.822;6.754;2023-05-10T04:48:33;6.75;;;5.28;;
65459;SDS011;52058;49.822;6.754;2023-05-10T04:50:59;6.97;;;4.65;;
65459;SDS011;52058;49.822;6.754;2023-05-10T04:53:26;7.50;;;4.70;;
65459;SDS011;52058;49.822;6.754;2023-05-10T04:55:54;6.53;;;4.28;;
65459;SDS011;52058;49.822;6.754;2023-05-10T04:58:20;6.40;;;4.88;;
65459;SDS011;52058;49.822;6.754;2023-05-10T05:00:47;6.40;;;4.43;;
65459;SDS011;52058;49.822;6.754;2023-05-10T05:03:13;5.93;;;4.45;;
65459;SDS011;52058;49.822;6.754;2023-05-10T05:05:40;6.57;;;3.85;;
65459;SDS011;52058;49.822;6.754;2023-05-10T05:08:06;4.93;;;3.20;;
65459;SDS011;52058;49.822;6.754;2023-05-10T05:10:33;4.55;;;3.40;;
65459;SDS011;52058;49.822;6.754;2023-05-10T05:13:01;3.63;;;2.85;;
65459;SDS011;52058;49.822;6.754;2023-05-10T05:15:27;4.05;;;2.92;;
65459;SDS011;52058;49.822;6.754;2023-05-10T05:17:55;3.33;;;2.80;;
65459;SDS011;52058;49.822;6.754;2023-05-10T05:20:22;3.95;;;2.33;;
65459;SDS011;52058;49.822;6.754;2023-05-10T05:22:48;2.97;;;2.40;;
65459;SDS011;52058;49.822;6.754;2023-05-10T05:25:15;3.38;;;2.35;;
65459;SDS011;52058;49.822;6.754;2023-05-10T05:27:41;3.15;;;2.55;;
65459;SDS011;52058;49.822;6.754;2023-05-10T05:30:10;2.33;;;2.00;;
65459;SDS011;52058;49.822;6.754;2023-05-10T05:32:37;3.47;;;2.22;;
65459;SDS011;52058;49.822;6.754;2023-05-10T05:35:04;3.17;;;2.13;;
65459;SDS011;52058;49.822;6.754;2023-05-10T05:37:31;2.28;;;1.85;;
65459;SDS011;52058;49.822;6.754;2023-05-10T05:39:57;2.25;;;1.80;;
65459;SDS011;52058;49.822;6.754;2023-05-10T05:42:26;2.85;;;1.92;;
65459;SDS011;52058;49.822;6.754;2023-05-10T05:44:52;3.08;;;2.30;;
65459;SDS011;52058;49.822;6.754;2023-05-10T05:47:20;1.73;;;1.50;;
65459;SDS011;52058;49.822;6.754;2023-05-10T05:49:47;2.28;;;1.60;;
65459;SDS011;52058;49.822;6.754;2023-05-10T05:52:13;2.08;;;1.30;;
65459;SDS011;52058;49.822;6.754;2023-05-10T05:54:40;3.53;;;1.17;;
65459;SDS011;52058;49.822;6.754;2023-05-10T05:57:06;1.83;;;1.20;;
65459;SDS011;52058;49.822;6.754;2023-05-10T05:59:33;0.93;;;0.88;;
65459;SDS011;52058;49.822;6.754;2023-05-10T06:02:00;2.13;;;1.10;;
65459;SDS011;52058;49.822;6.754;2023-05-10T06:04:28;0.70;;;0.70;;
65459;SDS011;52058;49.822;6.754;2023-05-10T06:06:54;1.08;;;0.98;;
65459;SDS011;52058;49.822;6.754;2023-05-10T06:09:21;1.10;;;1.00;;
65459;SDS011;52058;49.822;6.754;2023-05-10T06:11:49;2.28;;;1.17;;
65459;SDS011;52058;49.822;6.754;2023-05-10T06:14:16;2.60;;;1.30;;
65459;SDS011;52058;49.822;6.754;2023-05-10T06:16:42;2.00;;;1.50;;
65459;SDS011;52058;49.822;6.754;2023-05-10T06:19:09;1.90;;;0.90;;
65459;SDS011;52058;49.822;6.754;2023-05-10T06:21:37;1.58;;;0.90;;
65459;SDS011;52058;49.822;6.754;2023-05-10T06:24:03;1.40;;;0.80;;
65459;SDS011;52058;49.822;6.754;2023-05-10T06:26:31;0.88;;;0.82;;
65459;SDS011;52058;49.822;6.754;2023-05-10T06:28:58;0.90;;;0.90;;
65459;SDS011;52058;49.822;6.754;2023-05-10T06:31:24;1.73;;;1.00;;
65459;SDS011;52058;49.822;6.754;2023-05-10T06:33:51;2.25;;;0.93;;
65459;SDS011;52058;49.822;6.754;2023-05-10T06:36:18;1.00;;;0.90;;
65459;SDS011;52058;49.822;6.754;2023-05-10T06:38:46;1.23;;;0.90;;
65459;SDS011;52058;49.822;6.754;2023-05-10T06:41:13;3.03;;;1.20;;
65459;SDS011;52058;49.822;6.754;2023-05-10T06:43:40;1.48;;;0.80;;
65459;SDS011;52058;49.822;6.754;2023-05-10T06:46:08;1.95;;;1.00;;
65459;SDS011;52058;49.822;6.754;2023-05-10T06:48:34;1.80;;;0.95;;
65459;SDS011;52058;49.822;6.754;2023-05-10T06:51:01;0.85;;;0.68;;
65459;SDS011;52058;49.822;6.754;2023-05-10T06:53:27;0.65;;;0.60;;
65459;SDS011;52058;49.822;6.754;2023-05-10T06:55:56;0.60;;;0.60;;
65459;SDS011;52058;49.822;6.754;2023-05-10T06:58:22;0.50;;;0.50;;
65459;SDS011;52058;49.822;6.754;2023-05-10T07:00:49;0.55;;;0.50;;
65459;SDS011;52058;49.822;6.754;2023-05-10T07:03:15;0.98;;;0.50;;
65459;SDS011;52058;49.822;6.754;2023-05-10T07:05:42;1.77;;;0.55;;
65459;SDS011;52058;49.822;6.754;2023-05-10T07:08:08;0.50;;;0.50;;
65459;SDS011;52058;49.822;6.754;2023-05-10T07:10:35;0.55;;;0.55;;
65459;SDS011;52058;49.822;6.754;2023-05-10T07:13:03;0.55;;;0.55;;
65459;SDS011;52058;49.822;6.754;2023-05-10T07:15:29;0.68;;;0.65;;
65459;SDS011;52058;49.822;6.754;2023-05-10T07:17:56;0.60;;;0.60;;
65459;SDS011;52058;49.822;6.754;2023-05-10T07:20:23;2.55;;;0.70;;
65459;SDS011;52058;49.822;6.754;2023-05-10T07:22:49;0.60;;;0.60;;
65459;SDS011;52058;49.822;6.754;2023-05-10T07:25:16;1.02;;;0.60;;
65459;SDS011;52058;49.822;6.754;2023-05-10T07:27:42;1.42;;;0.70;;
65459;SDS011;52058;49.822;6.754;2023-05-10T07:30:11;2.80;;;1.05;;
65459;SDS011;52058;49.822;6.754;2023-05-10T07:32:38;0.93;;;0.88;;
65459;SDS011;52058;49.822;6.754;2023-05-10T07:35:07;0.77;;;0.70;;
65459;SDS011;52058;49.822;6.754;2023-05-10T07:37:34;1.23;;;1.00;;
65459;SDS011;52058;49.822;6.754;2023-05-10T07:40:00;3.20;;;0.80;;
65459;SDS011;52058;49.822;6.754;2023-05-10T07:42:27;1.77;;;0.73;;
65459;SDS011;52058;49.822;6.754;2023-05-10T07:44:54;1.38;;;0.70;;
65459;SDS011;52058;49.822;6.754;2023-05-10T07:47:22;0.70;;;0.70;;
65459;SDS011;52058;49.822;6.754;2023-05-10T07:49:48;1.73;;;0.80;;
65459;SDS011;52058;49.822;6.754;2023-05-10T07:52:15;1.23;;;0.60;;
65459;SDS011;52058;49.822;6.754;2023-05-10T07:54:41;0.70;;;0.70;;
65459;SDS011;52058;49.822;6.754;2023-05-10T07:57:08;1.05;;;0.55;;
65459;SDS011;52058;49.822;6.754;2023-05-10T07:59:34;1.15;;;0.68;;
65459;SDS011;52058;49.822;6.754;2023-05-10T08:02:01;0.80;;;0.55;;
65459;SDS011;52058;49.822;6.754;2023-05-10T08:04:29;5.47;;;0.73;;
65459;SDS011;52058;49.822;6.754;2023-05-10T08:06:55;0.98;;;0.50;;
65459;SDS011;52058;49.822;6.754;2023-05-10T08:09:22;0.50;;;0.50;;
65459;SDS011;52058;49.822;6.754;2023-05-10T08:11:48;0.60;;;0.60;;
65459;SDS011;52058;49.822;6.754;2023-05-10T08:14:15;2.28;;;0.77;;
65459;SDS011;52058;49.822;6.754;2023-05-10T08:16:42;0.95;;;0.60;;
65459;SDS011;52058;49.822;6.754;2023-05-10T08:19:08;0.50;;;0.50;;
65459;SDS011;52058;49.822;6.754;2023-05-10T08:21:36;0.70;;;0.60;;
65459;SDS011;52058;49.822;6.754;2023-05-10T08:24:03;0.70;;;0.70;;
65459;SDS011;52058;49.822;6.754;2023-05-10T08:26:30;3.30;;;0.90;;
65459;SDS011;52058;49.822;6.754;2023-05-10T08:28:57;1.60;;;0.80;;
65459;SDS011;52058;49.822;6.754;2023-05-10T08:31:23;0.70;;;0.68;;
65459;SDS011;52058;49.822;6.754;2023-05-10T08:33:50;0.80;;;0.80;;
65459;SDS011;52058;49.822;6.754;2023-05-10T08:36:17;1.27;;;0.90;;
65459;SDS011;52058;49.822;6.754;2023-05-10T08:38:49;0.88;;;0.70;;
65459;SDS011;52058;49.822;6.754;2023-05-10T08:41:16;1.27;;;0.90;;
65459;SDS011;52058;49.822;6.754;2023-05-10T08:43:43;1.20;;;0.70;;
65459;SDS011;52058;49.822;6.754;2023-05-10T08:46:12;0.70;;;0.70;;
65459;SDS011;52058;49.822;6.754;2023-05-10T08:48:42;1.35;;;0.77;;
65459;SDS011;52058;49.822;6.754;2023-05-10T08:51:09;0.80;;;0.75;;
65459;SDS011;52058;49.822;6.754;2023-05-10T08:53:40;0.98;;;0.70;;
65459;SDS011;52058;49.822;6.754;2023-05-10T08:56:08;0.60;;;0.60;;
65459;SDS011;52058;49.822;6.754;2023-05-10T08:58:35;0.70;;;0.70;;
65459;SDS011;52058;49.822;6.754;2023-05-10T09:01:02;1.70;;;1.10;;
65459;SDS011;52058;49.822;6.754;2023-05-10T09:03:29;2.63;;;1.10;;
65459;SDS011;52058;49.822;6.754;2023-05-10T09:05:56;0.80;;;0.70;;
65459;SDS011;52058;49.822;6.754;2023-05-10T09:08:22;1.70;;;1.30;;
65459;SDS011;52058;49.822;6.754;2023-05-10T09:10:51;2.53;;;1.02;;
65459;SDS011;52058;49.822;6.754;2023-05-10T09:13:19;1.52;;;1.00;;
65459;SDS011;52058;49.822;6.754;2023-05-10T09:15:47;3.17;;;0.90;;
65459;SDS011;52058;49.822;6.754;2023-05-10T09:18:14;3.80;;;1.10;;
65459;SDS011;52058;49.822;6.754;2023-05-10T09:20:41;3.13;;;1.30;;
65459;SDS011;52058;49.822;6.754;2023-05-10T09:23:07;1.88;;;1.33;;
65459;SDS011;52058;49.822;6.754;2023-05-10T09:25:34;2.22;;;1.10;;
65459;SDS011;52058;49.822;6.754;2023-05-10T09:28:02;1.65;;;1.20;;
65459;SDS011;52058;49.822;6.754;2023-05-10T09:30:34;2.08;;;1.20;;
65459;SDS011;52058;49.822;6.754;2023-05-10T09:33:01;1.42;;;1.00;;
65459;SDS011;52058;49.822;6.754;2023-05-10T09:35:28;2.30;;;1.15;;
65459;SDS011;52058;49.822;6.754;2023-05-10T09:37:56;1.70;;;1.30;;
65459;SDS011;52058;49.822;6.754;2023-05-10T09:40:25;2.72;;;1.05;;
65459;SDS011;52058;49.822;6.754;2023-05-10T09:42:54;3.10;;;1.45;;
65459;SDS011;52058;49.822;6.754;2023-05-10T09:45:22;3.72;;;2.35;;
65459;SDS011;52058;49.822;6.754;2023-05-10T09:47:50;3.15;;;1.60;;
65459;SDS011;52058;49.822;6.754;2023-05-10T09:50:18;3.25;;;1.33;;
65459;SDS011;52058;49.822;6.754;2023-05-10T09:52:45;5.88;;;1.30;;
65459;SDS011;52058;49.822;6.754;2023-05-10T09:55:14;3.75;;;1.42;;
65459;SDS011;52058;49.822;6.754;2023-05-10T09:57:41;4.10;;;1.50;;
65459;SDS011;52058;49.822;6.754;2023-05-10T10:00:08;1.95;;;1.50;;
65459;SDS011;52058;49.822;6.754;2023-05-10T10:02:36;2.58;;;1.90;;
65459;SDS011;52058;49.822;6.754;2023-05-10T10:05:05;1.65;;;1.55;;
65459;SDS011;52058;49.822;6.754;2023-05-10T10:07:32;3.05;;;1.80;;
65459;SDS011;52058;49.822;6.754;2023-05-10T10:10:00;3.47;;;1.70;;
65459;SDS011;52058;49.822;6.754;2023-05-10T10:12:26;3.25;;;1.80;;
65459;SDS011;52058;49.822;6.754;2023-05-10T10:14:53;3.03;;;1.73;;
65459;SDS011;52058;49.822;6.754;2023-05-10T10:17:21;3.17;;;1.83;;
65459;SDS011;52058;49.822;6.754;2023-05-10T10:19:47;2.47;;;1.90;;
65459;SDS011;52058;49.822;6.754;2023-05-10T10:22:16;6.28;;;2.05;;
65459;SDS011;52058;49.822;6.754;2023-05-10T10:24:43;4.30;;;2.00;;
65459;SDS011;52058;49.822;6.754;2023-05-10T10:27:13;3.35;;;1.70;;
65459;SDS011;52058;49.822;6.754;2023-05-10T10:29:48;3.03;;;1.98;;
65459;SDS011;52058;49.822;6.754;2023-05-10T10:32:23;2.63;;;1.60;;
65459;SDS011;52058;49.822;6.754;2023-05-10T10:34:56;5.72;;;2.30;;
65459;SDS011;52058;49.822;6.754;2023-05-10T10:37:24;3.25;;;1.73;;
65459;SDS011;52058;49.822;6.754;2023-05-10T10:40:27;4.25;;;1.77;;
65459;SDS011;52058;49.822;6.754;2023-05-10T10:42:55;3.80;;;2.03;;
65459;SDS011;52058;49.822;6.754;2023-05-10T10:45:23;1.65;;;1.50;;
65459;SDS011;52058;49.822;6.754;2023-05-10T10:47:53;4.80;;;1.90;;
65459;SDS011;52058;49.822;6.754;2023-05-10T10:50:45;5.10;;;2.10;;
65459;SDS011;52058;49.822;6.754;2023-05-10T10:53:13;4.38;;;2.10;;
65459;SDS011;52058;49.822;6.754;2023-05-10T10:55:45;3.33;;;1.58;;
65459;SDS011;52058;49.822;6.754;2023-05-10T10:58:49;2.40;;;1.80;;
65459;SDS011;52058;49.822;6.754;2023-05-10T11:01:17;3.17;;;1.92;;
65459;SDS011;52058;49.822;6.754;2023-05-10T11:06:46;3.42;;;1.60;;
65459;SDS011;52058;49.822;6.754;2023-05-10T11:09:13;4.40;;;1.70;;
65459;SDS011;52058;49.822;6.754;2023-05-10T11:11:49;2.70;;;1.60;;
65459;SDS011;52058;49.822;6.754;2023-05-10T11:14:20;4.32;;;1.70;;
65459;SDS011;52058;49.822;6.754;2023-05-10T11:16:47;3.90;;;1.52;;
65459;SDS011;52058;49.822;6.754;2023-05-10T11:19:14;3.65;;;1.77;;
65459;SDS011;52058;49.822;6.754;2023-05-10T11:21:46;3.17;;;2.05;;
65459;SDS011;52058;49.822;6.754;2023-05-10T11:24:14;5.47;;;1.73;;
65459;SDS011;52058;49.822;6.754;2023-05-10T11:26:42;4.28;;;1.80;;
65459;SDS011;52058;49.822;6.754;2023-05-10T11:29:09;4.93;;;1.85;;
65459;SDS011;52058;49.822;6.754;2023-05-10T11:31:41;3.92;;;1.52;;
65459;SDS011;52058;49.822;6.754;2023-05-10T11:34:08;5.65;;;1.40;;
65459;SDS011;52058;49.822;6.754;2023-05-10T11:36:36;3.78;;;1.63;;
65459;SDS011;52058;49.822;6.754;2023-05-10T11:39:04;3.58;;;1.38;;
65459;SDS011;52058;49.822;6.754;2023-05-10T11:41:31;3.95;;;1.55;;
65459;SDS011;52058;49.822;6.754;2023-05-10T11:43:58;3.28;;;1.52;;
65459;SDS011;52058;49.822;6.754;2023-05-10T11:46:25;4.32;;;1.73;;
65459;SDS011;52058;49.822;6.754;2023-05-10T11:48:53;3.63;;;1.30;;
65459;SDS011;52058;49.822;6.754;2023-05-10T11:51:22;4.57;;;1.67;;
65459;SDS011;52058;49.822;6.754;2023-05-10T11:53:49;2.60;;;1.10;;
65459;SDS011;52058;49.822;6.754;2023-05-10T11:56:18;4.07;;;1.30;;
65459;SDS011;52058;49.822;6.754;2023-05-10T11:58:45;1.83;;;1.27;;
65459;SDS011;52058;49.822;6.754;2023-05-10T12:01:17;2.60;;;1.27;;
65459;SDS011;52058;49.822;6.754;2023-05-10T12:03:44;3.28;;;1.10;;
65459;SDS011;52058;49.822;6.754;2023-05-10T12:06:11;3.13;;;1.30;;
65459;SDS011;52058;49.822;6.754;2023-05-10T12:08:43;2.95;;;1.25;;
65459;SDS011;52058;49.822;6.754;2023-05-10T12:11:11;3.92;;;1.15;;
65459;SDS011;52058;49.822;6.754;2023-05-10T12:13:40;1.30;;;1.05;;
65459;SDS011;52058;49.822;6.754;2023-05-10T12:16:14;3.00;;;1.05;;
65459;SDS011;52058;49.822;6.754;2023-05-10T12:18:42;2.00;;;1.05;;
65459;SDS011;52058;49.822;6.754;2023-05-10T12:21:09;2.42;;;1.20;;
65459;SDS011;52058;49.822;6.754;2023-05-10T12:23:36;2.15;;;1.00;;
65459;SDS011;52058;49.822;6.754;2023-05-10T12:26:03;1.60;;;0.90;;
65459;SDS011;52058;49.822;6.754;2023-05-10T12:28:30;2.95;;;0.85;;
65459;SDS011;52058;49.822;6.754;2023-05-10T12:30:59;2.38;;;0.90;;
65459;SDS011;52058;49.822;6.754;2023-05-10T12:33:26;2.58;;;0.90;;
65459;SDS011;52058;49.822;6.754;2023-05-10T12:35:52;2.67;;;1.05;;
65459;SDS011;52058;49.822;6.754;2023-05-10T12:38:24;3.83;;;1.08;;
65459;SDS011;52058;49.822;6.754;2023-05-10T12:40:55;3.60;;;1.20;;
65459;SDS011;52058;49.822;6.754;2023-05-10T12:43:23;3.33;;;0.93;;
65459;SDS011;52058;49.822;6.754;2023-05-10T12:45:49;1.70;;;1.00;;
65459;SDS011;52058;49.822;6.754;2023-05-10T12:48:17;2.17;;;0.80;;
65459;SDS011;52058;49.822;6.754;2023-05-10T12:50:44;6.55;;;1.20;;
65459;SDS011;52058;49.822;6.754;2023-05-10T12:53:10;1.63;;;1.10;;
65459;SDS011;52058;49.822;6.754;2023-05-10T12:55:38;2.35;;;1.17;;
65459;SDS011;52058;49.822;6.754;2023-05-10T12:58:04;1.85;;;1.00;;
65459;SDS011;52058;49.822;6.754;2023-05-10T13:00:31;1.83;;;1.40;;
65459;SDS011;52058;49.822;6.754;2023-05-10T13:02:57;5.15;;;1.40;;
65459;SDS011;52058;49.822;6.754;2023-05-10T13:05:25;7.00;;;1.40;;
65459;SDS011;52058;49.822;6.754;2023-05-10T13:07:52;9.35;;;1.55;;
65459;SDS011;52058;49.822;6.754;2023-05-10T13:10:18;1.95;;;0.95;;
65459;SDS011;52058;49.822;6.754;2023-05-10T13:12:45;1.88;;;1.17;;
65459;SDS011;52058;49.822;6.754;2023-05-10T13:15:12;3.53;;;1.40;;
65459;SDS011;52058;49.822;6.754;2023-05-10T13:17:39;2.03;;;1.00;;
65459;SDS011;52058;49.822;6.754;2023-05-10T13:20:07;1.45;;;1.00;;
65459;SDS011;52058;49.822;6.754;2023-05-10T13:22:36;2.75;;;1.30;;
65459;SDS011;52058;49.822;6.754;2023-05-10T13:25:03;2.05;;;0.90;;
65459;SDS011;52058;49.822;6.754;2023-05-10T13:27:30;4.03;;;1.00;;
65459;SDS011;52058;49.822;6.754;2023-05-10T13:29:56;3.33;;;1.20;;
65459;SDS011;52058;49.822;6.754;2023-05-10T13:32:24;2.03;;;1.00;;
65459;SDS011;52058;49.822;6.754;2023-05-10T13:34:51;2.95;;;1.00;;
65459;SDS011;52058;49.822;6.754;2023-05-10T13:37:17;2.20;;;1.10;;
65459;SDS011;52058;49.822;6.754;2023-05-10T13:39:45;2.92;;;1.00;;
65459;SDS011;52058;49.822;6.754;2023-05-10T13:42:12;2.75;;;1.10;;
65459;SDS011;52058;49.822;6.754;2023-05-10T13:44:38;2.28;;;1.05;;
65459;SDS011;52058;49.822;6.754;2023-05-10T13:47:05;2.08;;;1.08;;
65459;SDS011;52058;49.822;6.754;2023-05-10T13:49:31;2.03;;;1.00;;
65459;SDS011;52058;49.822;6.754;2023-05-10T13:51:58;2.10;;;1.08;;
65459;SDS011;52058;49.822;6.754;2023-05-10T13:54:30;1.20;;;0.82;;
65459;SDS011;52058;49.822;6.754;2023-05-10T13:56:58;2.17;;;1.02;;
65459;SDS011;52058;49.822;6.754;2023-05-10T13:59:25;1.35;;;1.00;;
65459;SDS011;52058;49.822;6.754;2023-05-10T14:01:52;3.13;;;1.15;;
65459;SDS011;52058;49.822;6.754;2023-05-10T14:04:18;2.55;;;0.88;;
65459;SDS011;52058;49.822;6.754;2023-05-10T14:06:45;3.17;;;1.10;;
65459;SDS011;52058;49.822;6.754;2023-05-10T14:09:12;3.35;;;0.93;;
65459;SDS011;52058;49.822;6.754;2023-05-10T14:11:38;2.42;;;0.82;;
65459;SDS011;52058;49.822;6.754;2023-05-10T14:14:09;1.95;;;0.75;;
65459;SDS011;52058;49.822;6.754;2023-05-10T14:16:36;3.00;;;1.25;;
65459;SDS011;52058;49.822;6.754;2023-05-10T14:19:02;3.10;;;0.98;;
65459;SDS011;52058;49.822;6.754;2023-05-10T14:21:29;1.98;;;0.80;;
65459;SDS011;52058;49.822;6.754;2023-05-10T14:23:55;2.47;;;1.00;;
65459;SDS011;52058;49.822;6.754;2023-05-10T14:26:22;2.47;;;1.10;;
65459;SDS011;52058;49.822;6.754;2023-05-10T14:28:48;1.50;;;0.80;;
65459;SDS011;52058;49.822;6.754;2023-05-10T14:31:16;4.63;;;1.00;;
65459;SDS011;52058;49.822;6.754;2023-05-10T14:33:45;2.13;;;1.13;;
65459;SDS011;52058;49.822;6.754;2023-05-10T14:36:11;2.25;;;0.75;;
65459;SDS011;52058;49.822;6.754;2023-05-10T14:38:38;1.42;;;0.90;;
65459;SDS011;52058;49.822;6.754;2023-05-10T14:41:13;2.55;;;0.90;;
65459;SDS011;52058;49.822;6.754;2023-05-10T14:43:40;1.60;;;0.90;;
65459;SDS011;52058;49.822;6.754;2023-05-10T14:46:07;1.70;;;0.73;;
65459;SDS011;52058;49.822;6.754;2023-05-10T14:48:35;2.65;;;0.77;;
65459;SDS011;52058;49.822;6.754;2023-05-10T14:51:01;2.30;;;1.15;;
65459;SDS011;52058;49.822;6.754;2023-05-10T14:53:28;2.15;;;0.80;;
65459;SDS011;52058;49.822;6.754;2023-05-10T14:55:55;1.35;;;0.80;;
65459;SDS011;52058;49.822;6.754;2023-05-10T14:58:22;3.28;;;0.80;;